Time;durP1;ratioP1;P1;durP2;ratioP2;P2;SDS_P1;SDS_P2;PMS_P1;PMS_P2;Temp;Humidity;BMP_temperature;BMP_pressure;BME280_temperature;BME280_humidity;BME280_pressure;Samples;Min_cycle;Max_cycle;Signal;HPM_P1;HPM_P2
2021/07/28 00:01:23;;;;;;;13.53;7.80;;;18.70;99.90;;;;;;5022752;28;20526;-75
2021/07/28 00:03:49;;;;;;;10.13;7.30;;;18.70;99.90;;;;;;5018674;28;20187;-79
2021/07/28 00:06:22;;;;;;;15.23;8.10;;;18.70;99.90;;;;;;5018040;28;20427;-78
2021/07/28 00:09:11;;;;;;;12.10;7.87;;;18.60;99.90;;;;;;5023867;28;20462;-78
2021/07/28 00:11:37;;;;;;;9.87;6.77;;;18.60;99.90;;;;;;5018042;28;20407;-78
2021/07/28 00:14:02;;;;;;;10.83;7.93;;;18.60;99.90;;;;;;5022641;28;20544;-78
2021/07/28 00:16:28;;;;;;;11.70;7.97;;;18.60;99.90;;;;;;5012691;28;20172;-78
2021/07/28 00:19:17;;;;;;;13.00;7.70;;;18.60;99.90;;;;;;5027847;28;20222;-76
2021/07/28 00:24:31;;;;;;;15.70;8.23;;;18.50;99.90;;;;;;5019981;28;20548;-75
2021/07/28 00:26:59;;;;;;;10.33;6.20;;;18.50;99.90;;;;;;5033015;28;21408;-75
2021/07/28 00:29:30;;;;;;;11.93;7.10;;;18.50;99.90;;;;;;5024870;28;20503;-75
2021/07/28 00:31:59;;;;;;;14.83;7.50;;;18.50;99.90;;;;;;5021491;28;20441;-75
2021/07/28 00:34:41;;;;;;;14.70;7.90;;;18.50;99.90;;;;;;5036611;28;20401;-78
2021/07/28 00:37:11;;;;;;;12.80;7.90;;;18.50;99.90;;;;;;5036375;28;20767;-79
2021/07/28 00:39:41;;;;;;;11.10;6.70;;;18.40;99.90;;;;;;5036262;28;20395;-78
2021/07/28 00:42:41;;;;;;;11.73;7.30;;;18.40;99.90;;;;;;5024547;28;20422;-78
2021/07/28 00:45:12;;;;;;;14.70;7.20;;;18.40;99.90;;;;;;5016399;28;20456;-78
2021/07/28 00:48:13;;;;;;;14.77;7.40;;;18.30;99.90;;;;;;5016598;28;20409;-78
2021/07/28 00:50:42;;;;;;;13.00;7.87;;;18.30;99.90;;;;;;5015169;28;20851;-78
2021/07/28 00:53:20;;;;;;;13.67;8.53;;;18.20;99.90;;;;;;5016427;28;20879;-78
2021/07/28 00:55:54;;;;;;;14.23;7.77;;;18.20;99.90;;;;;;5016216;28;20390;-78
2021/07/28 00:58:42;;;;;;;15.97;8.70;;;18.10;99.90;;;;;;5022766;28;20412;-78
2021/07/28 01:01:11;;;;;;;14.40;9.10;;;18.00;99.90;;;;;;5035779;28;20390;-78
2021/07/28 01:03:42;;;;;;;13.53;8.00;;;18.00;99.90;;;;;;5034103;28;20443;-78
2021/07/28 01:06:11;;;;;;;11.50;6.87;;;17.90;99.90;;;;;;5031094;28;20922;-78
2021/07/28 01:09:11;;;;;;;14.97;7.83;;;17.80;99.90;;;;;;5035665;28;20464;-78
2021/07/28 01:11:41;;;;;;;12.77;7.70;;;17.80;99.90;;;;;;5025560;28;20469;-78
2021/07/28 01:14:07;;;;;;;13.50;7.30;;;17.80;99.90;;;;;;5034510;28;20433;-78
2021/07/28 01:16:42;;;;;;;16.03;7.50;;;17.70;99.90;;;;;;5032019;28;20937;-78
2021/07/28 01:19:20;;;;;;;13.23;8.10;;;17.60;99.90;;;;;;5016389;28;20164;-78
2021/07/28 01:22:11;;;;;;;24.67;8.90;;;17.60;99.90;;;;;;5035662;28;20750;-78
2021/07/28 01:24:41;;;;;;;14.60;7.50;;;17.50;99.90;;;;;;5035705;28;20443;-78
2021/07/28 01:27:12;;;;;;;15.30;8.83;;;17.40;99.90;;;;;;5035271;28;20378;-78
2021/07/28 01:29:41;;;;;;;20.70;8.10;;;17.30;99.90;;;;;;5035326;28;20430;-78
2021/07/28 01:32:14;;;;;;;15.47;9.10;;;17.30;99.90;;;;;;5035372;28;20373;-78
2021/07/28 01:34:48;;;;;;;16.13;8.13;;;17.20;99.90;;;;;;5026555;28;20408;-75
2021/07/28 01:37:15;;;;;;;14.90;8.47;;;17.20;99.90;;;;;;5033304;28;20405;-75
2021/07/28 01:39:41;;;;;;;18.83;8.70;;;17.20;99.90;;;;;;5035226;28;20465;-76
2021/07/28 01:42:06;;;;;;;18.53;9.57;;;17.10;99.90;;;;;;5033983;28;20491;-75
2021/07/28 01:44:37;;;;;;;24.07;10.10;;;17.10;99.90;;;;;;5021874;28;20184;-75
2021/07/28 01:47:23;;;;;;;20.80;10.07;;;17.00;99.90;;;;;;5029249;28;20166;-75
2021/07/28 01:53:10;;;;;;;19.90;10.10;;;17.00;99.90;;;;;;5015076;28;20399;-78
2021/07/28 02:02:20;;;;;;;15.10;9.60;;;16.90;99.90;;;;;;5027526;28;20399;-78
2021/07/28 02:04:45;;;;;;;19.10;9.47;;;16.90;99.90;;;;;;5027720;28;20490;-75
2021/07/28 02:07:11;;;;;;;21.90;10.33;;;16.90;99.90;;;;;;5029070;28;20235;-75
2021/07/28 02:09:41;;;;;;;26.17;9.67;;;16.90;99.90;;;;;;5033712;28;20200;-75
2021/07/28 02:12:11;;;;;;;28.20;9.23;;;16.80;99.90;;;;;;5029239;28;20169;-76
2021/07/28 02:14:37;;;;;;;20.90;9.20;;;16.80;99.90;;;;;;5033302;28;20427;-75
2021/07/28 02:17:05;;;;;;;22.00;8.43;;;16.80;99.90;;;;;;5016741;28;20962;-75
2021/07/28 02:19:31;;;;;;;18.70;9.27;;;16.80;99.90;;;;;;5032966;28;20920;-75
2021/07/28 02:22:17;;;;;;;14.83;9.03;;;17.00;99.90;;;;;;5034148;28;20448;-75
2021/07/28 02:25:05;;;;;;;15.63;8.27;;;16.90;99.90;;;;;;5031123;28;20174;-75
2021/07/28 02:27:31;;;;;;;14.23;8.60;;;16.90;99.90;;;;;;5019976;28;20431;-75
2021/07/28 02:29:57;;;;;;;16.23;8.27;;;;;;;;;;5018391;28;20991;-75
2021/07/28 02:32:22;;;;;;;32.63;10.00;;;16.90;99.90;;;;;;5019935;28;20184;-75
2021/07/28 02:35:23;;;;;;;17.17;9.80;;;16.90;99.90;;;;;;5033185;28;20416;-78
2021/07/28 02:38:35;;;;;;;16.33;9.77;;;16.90;99.90;;;;;;5034332;28;20189;-78
2021/07/28 02:47:45;;;;;;;14.20;8.90;;;16.80;99.90;;;;;;5020493;28;20822;-78
2021/07/28 02:50:12;;;;;;;19.60;9.93;;;16.70;99.90;;;;;;5034449;28;20445;-75
2021/07/28 02:52:41;;;;;;;17.00;9.90;;;16.70;99.90;;;;;;5030833;28;20441;-75
2021/07/28 02:55:08;;;;;;;18.47;10.83;;;16.70;99.90;;;;;;5031153;28;20451;-75
2021/07/28 02:57:35;;;;;;;28.43;11.10;;;16.60;99.90;;;;;;5031235;28;20395;-75
2021/07/28 03:00:01;;;;;;;26.37;10.33;;;16.70;99.90;;;;;;5019445;28;20424;-75
2021/07/28 03:02:29;;;;;;;16.07;9.40;;;16.80;99.90;;;;;;5018131;28;20426;-75
2021/07/28 03:04:55;;;;;;;25.07;11.60;;;16.60;99.90;;;;;;5026528;28;20444;-78
2021/07/28 03:10:53;;;;;;;31.63;11.60;;;16.60;99.90;;;;;;5025222;28;20188;-78
2021/07/28 03:13:47;;;;;;;24.67;11.93;;;16.70;99.90;;;;;;5014036;28;20403;-78
2021/07/28 03:16:59;;;;;;;31.70;12.47;;;16.70;99.90;;;;;;5016998;28;20432;-78
2021/07/28 03:19:41;;;;;;;23.23;12.93;;;16.80;99.90;;;;;;5016281;28;20456;-76
2021/07/28 03:22:11;;;;;;;24.23;11.80;;;16.80;99.90;;;;;;5027193;28;20421;-76
2021/07/28 03:24:37;;;;;;;26.03;12.50;;;16.80;99.90;;;;;;5013910;28;20893;-75
2021/07/28 03:27:06;;;;;;;23.13;12.37;;;16.80;99.90;;;;;;5031364;28;20424;-75
2021/07/28 03:29:41;;;;;;;29.40;13.33;;;16.80;99.90;;;;;;5030286;28;20193;-75
2021/07/28 03:32:08;;;;;;;30.03;13.50;;;16.80;99.90;;;;;;5021593;28;20449;-75
2021/07/28 03:34:47;;;;;;;31.70;13.00;;;16.80;99.90;;;;;;5033948;28;20407;-75
2021/07/28 03:37:23;;;;;;;26.60;13.80;;;16.90;99.90;;;;;;5028723;28;20410;-75
2021/07/28 03:40:06;;;;;;;27.37;14.27;;;16.90;99.90;;;;;;5033496;28;20403;-75
2021/07/28 03:42:35;;;;;;;31.33;14.27;;;17.00;99.90;;;;;;5031314;28;20379;-75
2021/07/28 03:45:01;;;;;;;29.77;14.10;;;17.00;99.90;;;;;;5021743;28;20478;-76
2021/07/28 03:47:29;;;;;;;33.47;15.10;;;17.00;99.90;;;;;;5028369;28;20486;-75
2021/07/28 03:53:17;;;;;;;39.77;15.20;;;17.10;99.90;;;;;;5019034;28;20495;-78
2021/07/28 03:55:53;;;;;;;31.77;16.27;;;17.20;99.90;;;;;;5013377;28;20416;-78
2021/07/28 04:01:41;;;;;;;34.60;14.23;;;17.20;99.90;;;;;;5033001;28;20926;-78
2021/07/28 04:04:11;;;;;;;30.40;14.50;;;17.20;99.90;;;;;;5032003;28;20441;-77
2021/07/28 04:09:59;;;;;;;34.00;15.10;;;17.10;99.90;;;;;;5018842;28;20459;-79
2021/07/28 04:16:23;;;;;;;35.60;14.80;;;17.10;99.90;;;;;;5022896;28;20251;-78
2021/07/28 04:19:23;;;;;;;27.90;14.80;;;17.10;99.90;;;;;;5016899;28;20428;-78
2021/07/28 04:25:29;;;;;;;33.57;14.43;;;17.10;99.90;;;;;;5025071;28;20386;-80
2021/07/28 04:31:41;;;;;;;38.40;15.17;;;17.10;99.90;;;;;;5016592;28;20442;-79
2021/07/28 04:37:59;;;;;;;31.37;14.83;;;17.20;99.90;;;;;;5016955;28;20579;-78
2021/07/28 04:43:47;;;;;;;30.10;14.40;;;17.30;99.90;;;;;;5016588;28;20423;-76
2021/07/28 04:46:23;;;;;;;28.33;14.10;;;17.40;99.90;;;;;;5031145;28;20723;-77
2021/07/28 04:49:05;;;;;;;25.90;13.43;;;17.50;99.90;;;;;;5030100;28;20915;-76
2021/07/28 04:54:42;;;;;;;25.27;13.47;;;17.80;99.90;;;;;;5025537;28;20386;-78
2021/07/28 04:57:12;;;;;;;27.73;13.17;;;17.80;99.90;;;;;;5016327;28;20410;-77
2021/07/28 04:59:53;;;;;;;24.50;13.20;;;17.90;99.90;;;;;;5030399;28;20553;-77
2021/07/28 05:02:25;;;;;;;20.77;11.97;;;18.00;99.90;;;;;;5025335;28;20415;-76
2021/07/28 05:04:53;;;;;;;25.00;12.80;;;18.10;99.90;;;;;;5023473;28;20940;-76
2021/07/28 05:07:23;;;;;;;19.00;10.93;;;18.10;99.90;;;;;;5029205;28;20410;-76
2021/07/28 05:09:49;;;;;;;19.93;12.50;;;18.20;99.90;;;;;;5025141;28;20564;-76
2021/07/28 05:12:15;;;;;;;24.60;11.37;;;18.20;99.90;;;;;;5020467;28;20901;-76
2021/07/28 05:14:41;;;;;;;18.93;11.73;;;;;;;;;;5022669;28;20188;-76
2021/07/28 05:17:07;;;;;;;19.83;11.17;;;18.30;99.90;;;;;;5031573;28;20267;-76
2021/07/28 05:19:34;;;;;;;15.50;10.50;;;;;;;;;;5023193;28;20427;-77
2021/07/28 05:22:00;;;;;;;18.23;11.10;;;18.40;99.90;;;;;;5035229;28;20401;-77
2021/07/28 05:24:26;;;;;;;16.50;10.30;;;18.40;99.90;;;;;;5033038;28;20413;-76
2021/07/28 05:26:52;;;;;;;20.37;11.00;;;;;;;;;;5030049;28;20417;-76
2021/07/28 05:29:18;;;;;;;17.00;9.70;;;18.60;99.90;;;;;;5019996;28;20453;-76
2021/07/28 05:31:44;;;;;;;16.77;11.40;;;18.60;99.90;;;;;;5030150;28;20937;-76
2021/07/28 05:34:10;;;;;;;12.63;10.17;;;18.60;99.90;;;;;;5016223;28;20168;-76
2021/07/28 05:36:59;;;;;;;15.60;10.63;;;18.70;99.90;;;;;;5021709;28;20400;-79
2021/07/28 05:39:25;;;;;;;14.43;8.90;;;18.80;99.90;;;;;;5030283;28;20499;-76
2021/07/28 05:45:13;;;;;;;14.93;9.90;;;19.00;99.90;;;;;;5022201;28;20192;-76
2021/07/28 05:47:53;;;;;;;17.67;9.53;;;19.10;99.90;;;;;;5024558;28;20415;-76
2021/07/28 05:50:19;;;;;;;15.23;9.50;;;19.10;99.90;;;;;;5015401;28;20191;-76
2021/07/28 05:53:41;;;;;;;12.90;8.67;;;19.20;99.90;;;;;;5015445;28;21073;-78
2021/07/28 05:56:23;;;;;;;17.60;9.90;;;19.30;99.90;;;;;;5015292;28;20171;-78
2021/07/28 06:02:11;;;;;;;16.10;9.60;;;19.40;99.90;;;;;;5019853;28;20411;-78
2021/07/28 06:05:17;;;;;;;18.20;8.67;;;19.50;99.90;;;;;;5026682;28;20845;-78
2021/07/28 06:07:47;;;;;;;13.90;9.60;;;19.60;99.90;;;;;;5015147;28;20903;-78
2021/07/28 06:10:29;;;;;;;14.57;9.10;;;19.70;99.90;;;;;;5014960;28;20458;-78
2021/07/28 06:13:29;;;;;;;16.73;9.50;;;19.70;99.90;;;;;;5023357;28;20430;-79
2021/07/28 06:16:35;;;;;;;18.27;9.30;;;19.80;99.90;;;;;;5026885;28;20450;-78
2021/07/28 06:22:24;;;;;;;16.60;9.33;;;19.80;99.90;;;;;;5026609;28;20404;-76
2021/07/28 06:24:54;;;;;;;15.87;8.80;;;19.80;99.90;;;;;;5016057;28;20410;-76
2021/07/28 06:27:29;;;;;;;15.03;9.10;;;19.80;99.90;;;;;;5031728;28;20452;-76
2021/07/28 06:29:59;;;;;;;16.30;9.13;;;20.00;99.90;;;;;;5023999;28;20454;-76
2021/07/28 06:32:29;;;;;;;11.27;8.43;;;20.10;99.90;;;;;;5016133;28;20435;-76
2021/07/28 06:35:12;;;;;;;20.47;8.47;;;20.10;99.90;;;;;;5014444;28;20416;-76
2021/07/28 06:37:47;;;;;;;19.17;9.20;;;20.10;99.90;;;;;;5034772;28;20452;-78
2021/07/28 06:40:14;;;;;;;13.87;8.77;;;20.30;99.90;;;;;;5029332;28;20427;-78
2021/07/28 06:42:53;;;;;;;14.80;9.17;;;20.30;99.90;;;;;;5026517;28;20456;-78
2021/07/28 06:45:41;;;;;;;13.63;8.47;;;20.40;99.90;;;;;;5015333;28;20407;-78
2021/07/28 06:52:05;;;;;;;23.13;8.93;;;20.30;99.90;;;;;;5020567;28;20508;-78
2021/07/28 06:54:41;;;;;;;13.57;8.17;;;20.20;99.90;;;;;;5033741;28;20395;-78
2021/07/28 06:57:11;;;;;;;20.60;8.90;;;20.20;99.90;;;;;;5033682;28;20481;-78
2021/07/28 06:59:37;;;;;;;16.30;8.80;;;20.20;99.90;;;;;;5033729;28;20465;-79
2021/07/28 07:02:06;;;;;;;11.93;8.03;;;20.10;99.90;;;;;;5018152;28;20445;-78
2021/07/28 07:04:31;;;;;;;14.80;8.50;;;20.00;99.90;;;;;;5013640;28;20181;-78
2021/07/28 07:06:58;;;;;;;17.30;8.87;;;;;;;;;;5027699;28;20786;-76
2021/07/28 07:09:23;;;;;;;17.10;9.67;;;19.70;99.90;;;;;;5018633;28;20463;-76
2021/07/28 07:11:49;;;;;;;15.13;8.90;;;19.70;99.90;;;;;;5014031;28;20498;-76
2021/07/28 07:14:15;;;;;;;18.07;9.77;;;;;;;;;;5024176;28;20227;-76
2021/07/28 07:16:40;;;;;;;20.60;10.20;;;19.70;99.90;;;;;;5032189;28;20188;-76
2021/07/28 07:19:06;;;;;;;13.77;9.00;;;19.80;99.90;;;;;;5030948;28;20473;-76
2021/07/28 07:21:31;;;;;;;10.73;8.10;;;20.20;99.90;;;;;;5021241;28;20552;-76
2021/07/28 07:23:57;;;;;;;13.27;8.57;;;20.30;99.90;;;;;;5033066;28;20195;-76
2021/07/28 07:26:23;;;;;;;15.03;9.10;;;20.40;99.90;;;;;;5032140;28;20216;-76
2021/07/28 07:28:48;;;;;;;16.40;8.27;;;20.50;99.90;;;;;;5032062;28;20282;-76
2021/07/28 07:31:14;;;;;;;11.70;8.23;;;20.70;99.90;;;;;;5032457;28;20201;-76
2021/07/28 07:33:42;;;;;;;11.63;7.90;;;20.80;99.90;;;;;;5032247;28;20162;-76
2021/07/28 07:36:15;;;;;;;13.13;7.77;;;20.80;99.90;;;;;;5032385;28;20264;-76
2021/07/28 07:38:41;;;;;;;16.50;8.00;;;20.90;99.90;;;;;;5026604;28;20788;-78
2021/07/28 07:41:07;;;;;;;13.33;7.30;;;20.90;99.90;;;;;;5029193;28;20416;-79
2021/07/28 07:43:34;;;;;;;13.70;7.90;;;21.10;99.90;;;;;;5033315;28;20442;-79
2021/07/28 07:46:00;;;;;;;13.53;7.33;;;21.20;99.90;;;;;;5036563;28;20442;-78
2021/07/28 07:48:26;;;;;;;22.63;7.50;;;21.40;99.90;;;;;;5036405;28;20911;-79
2021/07/28 07:50:52;;;;;;;20.30;7.37;;;21.30;99.90;;;;;;5036438;28;20413;-79
2021/07/28 07:53:18;;;;;;;18.20;8.37;;;;;;;;;;5032408;28;20417;-79
2021/07/28 07:55:44;;;;;;;10.97;7.30;;;21.70;99.90;;;;;;5026002;28;20416;-79
2021/07/28 07:58:10;;;;;;;11.57;7.13;;;21.70;99.90;;;;;;5032168;28;20421;-78
2021/07/28 08:00:36;;;;;;;9.90;7.00;;;21.70;99.90;;;;;;5036198;28;20852;-79
2021/07/28 08:03:02;;;;;;;10.50;7.10;;;21.70;99.90;;;;;;5035090;28;20278;-78
2021/07/28 08:05:27;;;;;;;13.73;7.50;;;21.80;99.90;;;;;;5021530;28;20191;-79
2021/07/28 08:08:06;;;;;;;14.47;7.27;;;21.80;99.90;;;;;;5033890;28;20667;-78
2021/07/28 08:10:31;;;;;;;12.73;6.93;;;21.90;99.90;;;;;;5032082;28;20215;-79
2021/07/28 08:13:05;;;;;;;19.83;7.40;;;21.80;99.90;;;;;;5029029;28;20421;-79
2021/07/28 08:15:32;;;;;;;14.43;8.00;;;21.80;99.90;;;;;;5036186;28;20189;-79
2021/07/28 08:17:58;;;;;;;10.37;7.37;;;21.80;99.90;;;;;;5036437;28;20376;-80
2021/07/28 08:20:24;;;;;;;13.40;7.53;;;21.90;99.90;;;;;;5033722;28;20505;-75
2021/07/28 08:22:50;;;;;;;15.50;7.70;;;22.10;99.90;;;;;;5034693;28;20505;-74
2021/07/28 08:25:16;;;;;;;9.10;6.87;;;22.10;99.90;;;;;;5034914;28;20433;-75
2021/07/28 08:27:43;;;;;;;17.00;6.70;;;;;;;;;;5035545;28;20506;-75
2021/07/28 08:30:10;;;;;;;12.43;7.50;;;;;;;;;;5035905;28;20455;-75
2021/07/28 08:32:43;;;;;;;15.80;7.50;;;22.40;99.90;;;;;;5034496;28;20422;-77
2021/07/28 08:35:41;;;;;;;9.10;6.50;;;22.40;99.90;;;;;;5033464;28;20401;-76
2021/07/28 08:38:41;;;;;;;9.90;6.77;;;22.40;99.90;;;;;;5028552;28;20777;-76
2021/07/28 08:41:09;;;;;;;9.60;6.60;;;;;;;;;;5019528;28;20458;-79
2021/07/28 08:43:53;;;;;;;27.93;7.70;;;;;;;;;;5016167;28;20394;-78
2021/07/28 08:46:23;;;;;;;15.90;7.70;;;;;;;;;;5016181;28;20514;-78
2021/07/28 08:49:06;;;;;;;11.70;7.10;;;22.10;99.90;;;;;;5015399;28;20454;-78
2021/07/28 08:51:35;;;;;;;9.80;6.50;;;22.30;99.90;;;;;;5020250;28;20387;-78
2021/07/28 08:54:01;;;;;;;11.77;7.00;;;22.50;99.90;;;;;;5016655;28;20406;-76
2021/07/28 08:56:30;;;;;;;11.60;7.63;;;22.50;99.90;;;;;;5021942;28;20828;-75
2021/07/28 08:58:56;;;;;;;12.53;7.17;;;22.70;99.90;;;;;;5036401;28;20165;-75
2021/07/28 09:01:35;;;;;;;13.83;6.97;;;22.90;99.90;;;;;;5032406;28;20466;-75
2021/07/28 09:04:05;;;;;;;11.80;7.90;;;23.00;99.90;;;;;;5019672;28;20192;-75
2021/07/28 09:06:31;;;;;;;9.73;6.37;;;23.20;99.90;;;;;;5022164;28;20920;-76
2021/07/28 09:09:29;;;;;;;10.37;7.33;;;23.10;99.90;;;;;;5036031;28;20465;-77
2021/07/28 09:15:18;;;;;;;13.30;7.20;;;22.90;99.90;;;;;;5028913;28;20467;-79
2021/07/28 09:18:06;;;;;;;16.77;7.70;;;;;;;;;;5034765;28;20427;-79
2021/07/28 09:20:32;;;;;;;15.33;7.70;;;22.70;99.90;;;;;;5027252;28;20928;-78
2021/07/28 09:23:33;;;;;;;13.03;7.47;;;22.70;99.90;;;;;;5017107;28;20900;-79
2021/07/28 09:25:59;;;;;;;10.30;6.87;;;22.60;99.90;;;;;;4970200;28;20457;-76
2021/07/28 09:28:35;;;;;;;10.90;6.50;;;22.70;99.90;;;;;;4961568;28;20428;-76
2021/07/28 09:31:01;;;;;;;10.40;7.67;;;22.80;99.90;;;;;;4955093;28;20467;-75
2021/07/28 09:33:29;;;;;;;12.23;7.60;;;23.00;99.90;;;;;;4966956;28;20461;-75
2021/07/28 09:36:13;;;;;;;10.00;7.50;;;23.00;99.90;;;;;;4955087;28;20180;-76
2021/07/28 09:38:47;;;;;;;10.47;7.47;;;23.10;99.90;;;;;;4970845;28;20456;-75
2021/07/28 09:41:27;;;;;;;10.80;6.50;;;23.10;99.90;;;;;;4986532;28;20500;-78
2021/07/28 09:43:58;;;;;;;9.20;6.10;;;23.30;99.90;;;;;;4975987;28;20930;-78
2021/07/28 09:47:05;;;;;;;9.67;6.70;;;23.20;99.90;;;;;;4957530;28;20435;-78
2021/07/28 09:49:31;;;;;;;9.90;6.57;;;23.30;99.90;;;;;;4957533;28;20473;-78
2021/07/28 09:52:14;;;;;;;15.30;7.00;;;23.20;99.90;;;;;;4956667;28;20565;-79
2021/07/28 09:54:40;;;;;;;14.90;7.33;;;23.10;99.90;;;;;;4973641;28;20176;-75
2021/07/28 09:57:09;;;;;;;13.00;7.40;;;23.00;99.90;;;;;;4984794;28;20453;-75
2021/07/28 09:59:37;;;;;;;8.70;6.77;;;23.00;99.90;;;;;;4973715;28;20199;-76
2021/07/28 10:02:06;;;;;;;10.40;7.67;;;23.00;99.90;;;;;;4988303;28;20420;-76
2021/07/28 10:04:32;;;;;;;16.40;6.97;;;23.30;99.90;;;;;;5031307;28;20428;-75
2021/07/28 10:07:00;;;;;;;12.87;6.90;;;23.30;99.90;;;;;;5018299;28;20427;-75
2021/07/28 10:09:36;;;;;;;12.37;6.40;;;23.70;99.90;;;;;;5025169;28;20431;-77
2021/07/28 10:12:06;;;;;;;13.83;7.00;;;23.70;99.90;;;;;;5015134;28;20430;-75
2021/07/28 10:14:36;;;;;;;8.90;6.83;;;24.10;99.90;;;;;;5031439;28;20781;-75
2021/07/28 10:17:04;;;;;;;13.73;6.70;;;24.30;99.90;;;;;;5021647;28;20441;-75
2021/07/28 10:19:36;;;;;;;11.27;6.27;;;24.20;99.90;;;;;;5017076;28;20419;-75
2021/07/28 10:22:07;;;;;;;10.50;6.80;;;23.40;99.90;;;;;;5027938;28;20428;-75
2021/07/28 10:24:59;;;;;;;10.93;7.00;;;23.10;99.90;;;;;;5024708;28;20453;-75
2021/07/28 10:27:25;;;;;;;9.00;6.87;;;23.10;99.90;;;;;;5028294;28;20455;-78
2021/07/28 10:30:19;;;;;;;12.20;6.70;;;22.90;99.90;;;;;;5034106;28;20451;-78
2021/07/28 10:33:23;;;;;;;10.43;7.03;;;23.00;99.90;;;;;;5024580;28;20431;-79
2021/07/28 10:36:05;;;;;;;14.23;7.70;;;23.10;99.90;;;;;;5032382;28;20492;-79
2021/07/28 10:39:05;;;;;;;11.40;7.10;;;23.00;99.90;;;;;;5034241;28;20424;-78
2021/07/28 10:41:48;;;;;;;16.63;7.73;;;22.80;99.90;;;;;;5020868;28;20521;-78
2021/07/28 10:44:30;;;;;;;12.93;8.87;;;22.70;99.90;;;;;;5033316;28;20430;-78
2021/07/28 10:47:05;;;;;;;11.50;8.30;;;22.80;99.90;;;;;;5014354;28;20453;-78
2021/07/28 10:50:06;;;;;;;16.70;8.73;;;22.90;99.90;;;;;;5021143;28;20446;-78
2021/07/28 10:52:41;;;;;;;12.17;8.03;;;23.30;99.90;;;;;;5033717;28;20398;-79
2021/07/28 10:55:43;;;;;;;12.27;8.00;;;23.70;99.90;;;;;;5026668;28;20427;-76
2021/07/28 10:58:24;;;;;;;10.53;7.77;;;23.70;99.90;;;;;;5016196;28;20441;-75
2021/07/28 11:01:00;;;;;;;12.23;7.77;;;23.70;99.90;;;;;;5033772;28;20481;-76
2021/07/28 11:03:29;;;;;;;12.30;8.07;;;23.70;99.90;;;;;;5017149;28;20487;-75
2021/07/28 11:06:16;;;;;;;12.90;8.17;;;23.80;99.90;;;;;;5020816;28;20428;-75
2021/07/28 11:08:42;;;;;;;13.83;7.80;;;23.90;99.90;;;;;;5014276;28;20454;-75
2021/07/28 11:11:20;;;;;;;17.47;7.30;;;23.90;99.90;;;;;;5014499;28;20482;-75
2021/07/28 11:13:48;;;;;;;9.73;7.23;;;24.30;99.90;;;;;;5017985;28;20983;-75
2021/07/28 11:16:15;;;;;;;11.40;8.00;;;24.40;99.90;;;;;;5033059;28;20442;-75
2021/07/28 11:18:45;;;;;;;12.03;6.80;;;24.40;99.90;;;;;;5028810;28;20417;-75
2021/07/28 11:21:21;;;;;;;9.77;6.90;;;24.40;99.90;;;;;;5026883;28;20821;-75
2021/07/28 11:23:48;;;;;;;12.07;7.27;;;24.20;99.90;;;;;;5033715;28;20507;-74
2021/07/28 11:29:35;;;;;;;10.40;6.90;;;23.90;99.90;;;;;;5033105;28;20572;-80
2021/07/28 11:32:23;;;;;;;14.03;9.03;;;23.60;99.90;;;;;;5022514;28;20517;-79
2021/07/28 11:38:33;;;;;;;13.50;8.43;;;23.40;99.90;;;;;;5033099;28;20519;-77
2021/07/28 11:44:21;;;;;;;9.83;7.57;;;23.70;99.90;;;;;;5033628;28;20404;-75
2021/07/28 11:47:37;;;;;;;12.47;8.27;;;23.70;99.90;;;;;;5033491;28;20391;-76
2021/07/28 11:50:17;;;;;;;10.37;8.00;;;24.00;99.90;;;;;;5011724;28;20600;-76
2021/07/28 11:59:31;;;;;;;11.00;7.27;;;24.50;99.90;;;;;;5011564;28;20434;-76
2021/07/28 12:05:17;;;;;;;12.30;7.67;;;24.00;99.90;;;;;;4991881;28;20433;-78
2021/07/28 12:07:53;;;;;;;11.70;7.10;;;23.90;99.90;;;;;;4991926;28;20427;-77
2021/07/28 12:26:48;;;;;;;12.43;7.60;;;22.80;99.90;;;;;;5008463;28;20434;-76
2021/07/28 12:29:37;;;;;;;10.53;7.20;;;22.70;99.90;;;;;;5019543;28;20831;-75
2021/07/28 12:32:44;;;;;;;10.60;7.60;;;22.90;99.90;;;;;;5036361;28;20403;-75
2021/07/28 12:35:40;;;;;;;13.70;8.20;;;23.40;99.90;;;;;;5036854;28;20427;-78
2021/07/28 12:45:26;;;;;;;17.07;6.67;;;23.90;99.90;;;;;;5036392;28;20412;-77
2021/07/28 12:51:14;;;;;;;8.60;6.93;;;24.10;99.90;;;;;;4936795;29;20489;-77
2021/07/28 12:54:11;;;;;;;6.37;5.30;;;24.20;99.90;;;;;;4937089;29;20395;-77
2021/07/28 12:56:48;;;;;;;9.57;5.70;;;24.60;99.90;;;;;;4936954;29;20417;-78
2021/07/28 12:59:24;;;;;;;7.40;5.23;;;24.70;99.90;;;;;;4936511;29;20402;-78
2021/07/28 13:01:49;;;;;;;6.40;5.37;;;24.90;99.90;;;;;;4946688;29;20496;-76
2021/07/28 13:04:19;;;;;;;7.77;5.63;;;24.90;99.90;;;;;;4955643;29;20430;-76
2021/07/28 13:07:01;;;;;;;7.50;5.20;;;24.70;99.90;;;;;;4953691;29;20419;-75
2021/07/28 13:09:26;;;;;;;10.30;5.27;;;24.70;99.90;;;;;;4936122;29;20549;-76
2021/07/28 13:11:53;;;;;;;7.50;5.10;;;24.70;99.90;;;;;;4936910;29;20415;-76
2021/07/28 13:14:19;;;;;;;6.43;4.30;;;24.70;99.90;;;;;;4950874;29;20194;-75
2021/07/28 13:16:45;;;;;;;5.40;3.90;;;24.70;99.90;;;;;;4955806;29;20464;-76
2021/07/28 13:19:10;;;;;;;7.20;4.80;;;24.90;99.90;;;;;;4954920;29;20218;-76
2021/07/28 13:21:36;;;;;;;9.43;4.43;;;25.00;99.90;;;;;;4986615;28;20632;-76
2021/07/28 13:24:02;;;;;;;5.93;3.67;;;25.20;99.90;;;;;;5034823;28;20671;-76
2021/07/28 13:33:11;;;;;;;3.70;3.37;;;25.40;99.90;;;;;;5025835;28;20450;-80
2021/07/28 13:36:34;;;;;;;3.40;3.10;;;25.40;99.90;;;;;;5034615;28;20446;-80
2021/07/28 13:42:42;;;;;;;2.77;2.50;;;25.40;99.90;;;;;;5034258;28;20480;-80
2021/07/28 13:48:31;;;;;;;3.00;2.80;;;25.60;99.90;;;;;;5035061;28;20402;-80
2021/07/28 13:54:19;;;;;;;4.90;2.57;;;26.00;99.90;;;;;;5034941;28;20388;-80
2021/07/28 13:57:09;;;;;;;2.83;2.43;;;26.40;99.90;;;;;;5020456;28;20859;-76
2021/07/28 13:59:42;;;;;;;2.60;2.40;;;26.70;99.90;;;;;;5015531;28;20157;-75
2021/07/28 14:02:11;;;;;;;5.23;2.80;;;26.70;99.90;;;;;;5026888;28;20478;-76
2021/07/28 14:04:42;;;;;;;3.60;2.57;;;27.00;99.90;;;;;;5034960;28;20400;-76
2021/07/28 14:07:09;;;;;;;2.10;1.90;;;27.10;99.90;;;;;;5035184;28;20404;-75
2021/07/28 14:09:35;;;;;;;3.50;2.30;;;27.00;99.90;;;;;;5034163;28;20456;-75
2021/07/28 14:12:05;;;;;;;2.47;2.27;;;27.10;99.90;;;;;;5032688;28;20447;-75
2021/07/28 14:14:36;;;;;;;7.60;2.27;;;27.30;99.90;;;;;;5025485;28;20960;-79
2021/07/28 14:17:29;;;;;;;2.80;2.10;;;27.30;99.90;;;;;;5023884;28;20503;-81
2021/07/28 14:27:06;;;;;;;2.63;2.13;;;27.40;99.90;;;;;;5018363;28;20399;-83
2021/07/28 14:36:16;;;;;;;2.27;2.13;;;27.50;99.90;;;;;;5034164;28;20366;-79
2021/07/28 14:38:42;;;;;;;2.60;2.40;;;27.50;99.90;;;;;;5029642;28;20443;-78
2021/07/28 14:41:08;;;;;;;2.40;2.17;;;27.30;99.90;;;;;;5020847;28;20420;-77
2021/07/28 14:53:39;;;;;;;2.20;2.10;;;27.00;99.90;;;;;;5013937;28;20440;-82
2021/07/28 14:59:27;;;;;;;3.63;2.23;;;27.40;99.90;;;;;;5017247;28;20236;-79
2021/07/28 15:01:54;;;;;;;3.90;2.60;;;27.50;99.90;;;;;;5032829;28;20432;-78
2021/07/28 15:04:24;;;;;;;2.23;2.13;;;27.70;99.90;;;;;;5033567;28;20194;-78
2021/07/28 15:13:37;;;;;;;6.90;2.00;;;27.90;97.80;;;;;;5033055;28;20925;-79
2021/07/28 15:19:25;;;;;;;2.27;2.03;;;27.80;99.50;;;;;;5033540;28;20382;-78
2021/07/28 15:28:34;;;;;;;2.50;1.97;;;28.90;99.90;;;;;;5033442;28;20418;-79
2021/07/28 15:31:44;;;;;;;3.90;2.13;;;29.40;99.90;;;;;;5033213;28;20433;-79
2021/07/28 15:37:31;;;;;;;2.53;2.33;;;29.00;99.90;;;;;;5013468;28;20410;-79
2021/07/28 15:40:17;;;;;;;3.60;1.77;;;28.40;99.90;;;;;;5013761;28;20403;-80
2021/07/28 15:42:57;;;;;;;2.33;1.80;;;28.60;99.90;;;;;;5016402;28;20192;-80
2021/07/28 15:45:54;;;;;;;4.93;2.03;;;28.00;99.90;;;;;;5031009;28;20436;-80
2021/07/28 15:48:22;;;;;;;3.80;2.10;;;27.80;99.90;;;;;;5032526;28;20888;-81
2021/07/28 15:54:10;;;;;;;1.70;1.60;;;28.80;99.90;;;;;;5033245;28;20417;-81
2021/07/28 15:59:57;;;;;;;2.17;1.40;;;30.10;99.40;;;;;;5037451;28;20168;-81
2021/07/28 16:09:07;;;;;;;2.30;1.53;;;31.10;92.50;;;;;;5036655;28;20505;-81
2021/07/28 16:11:53;;;;;;;1.47;1.37;;;31.90;90.90;;;;;;5036867;28;20792;-81
2021/07/28 16:14:43;;;;;;;1.30;1.20;;;32.20;90.80;;;;;;5031200;28;20187;-80
2021/07/28 16:27:14;;;;;;;3.03;1.90;;;;;;;;;;5036207;28;20738;-81
2021/07/28 16:29:39;;;;;;;2.30;1.93;;;27.70;99.90;;;;;;5018557;28;20547;-75
2021/07/28 16:32:05;;;;;;;2.53;1.93;;;27.10;99.90;;;;;;5030022;28;20432;-75
2021/07/28 16:34:31;;;;;;;1.97;1.87;;;27.00;99.90;;;;;;5034799;28;20180;-75
2021/07/28 16:37:23;;;;;;;2.03;1.90;;;26.00;99.90;;;;;;5016720;28;20428;-76
2021/07/28 16:40:24;;;;;;;3.80;1.63;;;25.50;99.90;;;;;;5027011;28;20197;-79
2021/07/28 16:43:12;;;;;;;4.57;2.13;;;25.40;99.90;;;;;;5036769;28;20408;-77
2021/07/28 16:46:17;;;;;;;1.93;1.73;;;25.40;99.90;;;;;;5035327;28;20871;-84